sensor_id;sensor_type;location;lat;lon;timestamp;pressure;altitude;pressure_sealevel;temperature;humidity
26563;BME280;14217;50.986;5.826;2023-02-11T00:01:29;102869.50;;;16.63;40.43
26563;BME280;14217;50.986;5.826;2023-02-11T00:06:32;102871.28;;;16.65;40.32
26563;BME280;14217;50.986;5.826;2023-02-11T00:11:34;102865.06;;;16.73;40.27
26563;BME280;14217;50.986;5.826;2023-02-11T00:16:36;102865.94;;;16.73;40.28
26563;BME280;14217;50.986;5.826;2023-02-11T00:21:39;102865.97;;;16.67;40.23
26563;BME280;14217;50.986;5.826;2023-02-11T00:26:41;102871.28;;;16.65;40.47
26563;BME280;14217;50.986;5.826;2023-02-11T00:31:43;102864.13;;;16.88;40.10
26563;BME280;14217;50.986;5.826;2023-02-11T00:36:45;102874.75;;;16.78;40.18
26563;BME280;14217;50.986;5.826;2023-02-11T00:41:47;102876.50;;;16.79;40.21
26563;BME280;14217;50.986;5.826;2023-02-11T00:46:49;102873.88;;;16.73;40.27
26563;BME280;14217;50.986;5.826;2023-02-11T00:51:51;102868.59;;;16.81;40.23
26563;BME280;14217;50.986;5.826;2023-02-11T00:56:53;102865.94;;;16.82;40.17
26563;BME280;14217;50.986;5.826;2023-02-11T01:01:55;102862.38;;;16.88;39.74
26563;BME280;14217;50.986;5.826;2023-02-11T01:06:57;102862.34;;;16.93;39.60
26563;BME280;14217;50.986;5.826;2023-02-11T01:11:59;102848.28;;;16.81;39.91
26563;BME280;14217;50.986;5.826;2023-02-11T01:17:04;102847.41;;;16.82;39.97
26563;BME280;14217;50.986;5.826;2023-02-11T01:22:06;102852.66;;;16.89;39.96
26563;BME280;14217;50.986;5.826;2023-02-11T01:27:08;102872.06;;;16.92;39.79
26563;BME280;14217;50.986;5.826;2023-02-11T01:32:10;102878.28;;;16.83;40.05
26563;BME280;14217;50.986;5.826;2023-02-11T01:37:12;102880.00;;;16.91;39.99
26563;BME280;14217;50.986;5.826;2023-02-11T01:42:16;102880.00;;;16.91;39.86
26563;BME280;14217;50.986;5.826;2023-02-11T01:47:19;102876.50;;;16.87;39.98
26563;BME280;14217;50.986;5.826;2023-02-11T01:52:31;102870.28;;;16.93;39.98
26563;BME280;14217;50.986;5.826;2023-02-11T01:57:38;102876.47;;;16.92;39.77
26563;BME280;14217;50.986;5.826;2023-02-11T02:08:18;102871.22;;;16.85;39.91
26563;BME280;14217;50.986;5.826;2023-02-11T02:13:22;102870.31;;;16.91;40.09
26563;BME280;14217;50.986;5.826;2023-02-11T02:40:30;102852.69;;;16.85;40.07
26563;BME280;14217;50.986;5.826;2023-02-11T02:45:33;102857.94;;;16.90;39.89
26563;BME280;14217;50.986;5.826;2023-02-11T02:50:36;102850.88;;;16.91;39.98
26563;BME280;14217;50.986;5.826;2023-02-11T03:07:11;102841.16;;;16.93;40.06
26563;BME280;14217;50.986;5.826;2023-02-11T03:12:18;102833.25;;;16.90;39.87
26563;BME280;14217;50.986;5.826;2023-02-11T03:17:22;102828.78;;;16.98;39.82
26563;BME280;14217;50.986;5.826;2023-02-11T03:22:34;102818.25;;;16.85;39.89
26563;BME280;14217;50.986;5.826;2023-02-11T03:33:09;102820.88;;;16.92;40.12
26563;BME280;14217;50.986;5.826;2023-02-11T03:38:20;102818.22;;;16.92;39.78
26563;BME280;14217;50.986;5.826;2023-02-11T03:43:30;102812.94;;;16.92;40.12
26563;BME280;14217;50.986;5.826;2023-02-11T03:48:38;102810.28;;;16.92;40.08
26563;BME280;14217;50.986;5.826;2023-02-11T03:53:44;102807.59;;;16.95;39.85
26563;BME280;14217;50.986;5.826;2023-02-11T03:58:47;102808.53;;;16.88;40.07
26563;BME280;14217;50.986;5.826;2023-02-11T04:03:49;102808.50;;;16.95;39.88
26563;BME280;14217;50.986;5.826;2023-02-11T04:08:51;102823.56;;;16.87;40.18
26563;BME280;14217;50.986;5.826;2023-02-11T04:13:53;102824.44;;;16.88;40.12
26563;BME280;14217;50.986;5.826;2023-02-11T04:18:56;102819.13;;;16.86;40.14
26563;BME280;14217;50.986;5.826;2023-02-11T04:23:58;102813.78;;;16.91;39.92
26563;BME280;14217;50.986;5.826;2023-02-11T04:29:00;102809.38;;;16.96;39.83
26563;BME280;14217;50.986;5.826;2023-02-11T04:34:02;102802.41;;;16.76;40.50
26563;BME280;14217;50.986;5.826;2023-02-11T04:39:04;102802.34;;;16.92;39.90
26563;BME280;14217;50.986;5.826;2023-02-11T04:44:06;102793.47;;;16.97;40.02
26563;BME280;14217;50.986;5.826;2023-02-11T04:49:12;102801.47;;;16.88;39.98
26563;BME280;14217;50.986;5.826;2023-02-11T04:54:14;102798.84;;;16.86;40.03
26563;BME280;14217;50.986;5.826;2023-02-11T04:59:16;102801.50;;;16.86;40.12
26563;BME280;14217;50.986;5.826;2023-02-11T05:04:18;102793.56;;;16.86;40.27
26563;BME280;14217;50.986;5.826;2023-02-11T05:09:20;102788.25;;;16.82;40.46
26563;BME280;14217;50.986;5.826;2023-02-11T05:14:22;102795.34;;;16.84;40.31
26563;BME280;14217;50.986;5.826;2023-02-11T05:19:24;102788.19;;;16.93;39.95
26563;BME280;14217;50.986;5.826;2023-02-11T05:24:26;102783.75;;;16.95;39.98
26563;BME280;14217;50.986;5.826;2023-02-11T05:29:28;102782.06;;;16.89;40.29
26563;BME280;14217;50.986;5.826;2023-02-11T05:34:30;102778.47;;;16.96;39.79
26563;BME280;14217;50.986;5.826;2023-02-11T05:39:32;102792.59;;;16.95;40.08
26563;BME280;14217;50.986;5.826;2023-02-11T05:44:34;102790.84;;;16.96;40.01
26563;BME280;14217;50.986;5.826;2023-02-11T05:49:36;102794.38;;;16.90;40.12
26563;BME280;14217;50.986;5.826;2023-02-11T05:54:37;102790.88;;;16.91;40.19
26563;BME280;14217;50.986;5.826;2023-02-11T05:59:40;102783.81;;;16.89;40.43
26563;BME280;14217;50.986;5.826;2023-02-11T06:04:42;102794.44;;;16.85;40.33
26563;BME280;14217;50.986;5.826;2023-02-11T06:09:44;102800.59;;;16.89;40.35
26563;BME280;14217;50.986;5.826;2023-02-11T06:14:47;102803.19;;;16.91;40.31
26563;BME280;14217;50.986;5.826;2023-02-11T06:19:49;102792.56;;;16.97;40.09
26563;BME280;14217;50.986;5.826;2023-02-11T06:24:51;102796.16;;;16.88;40.39
26563;BME280;14217;50.986;5.826;2023-02-11T06:30:03;102800.56;;;16.92;40.12
26563;BME280;14217;50.986;5.826;2023-02-11T06:35:06;102803.19;;;16.92;40.23
26563;BME280;14217;50.986;5.826;2023-02-11T06:40:12;102803.19;;;16.91;40.23
26563;BME280;14217;50.986;5.826;2023-02-11T06:45:14;102795.25;;;16.91;40.30
26563;BME280;14217;50.986;5.826;2023-02-11T06:50:16;102797.06;;;16.85;40.24
26563;BME280;14217;50.986;5.826;2023-02-11T06:55:17;102797.00;;;16.98;39.93
26563;BME280;14217;50.986;5.826;2023-02-11T07:00:19;102797.94;;;16.89;40.42
26563;BME280;14217;50.986;5.826;2023-02-11T07:05:21;102796.19;;;16.85;40.52
26563;BME280;14217;50.986;5.826;2023-02-11T07:10:24;102795.28;;;16.88;40.57
26563;BME280;14217;50.986;5.826;2023-02-11T07:15:25;102797.00;;;16.95;40.47
26563;BME280;14217;50.986;5.826;2023-02-11T07:20:27;102792.63;;;16.92;40.59
26563;BME280;14217;50.986;5.826;2023-02-11T07:25:29;102808.53;;;16.88;40.52
26563;BME280;14217;50.986;5.826;2023-02-11T07:30:31;102815.59;;;16.79;40.63
26563;BME280;14217;50.986;5.826;2023-02-11T07:35:33;102827.03;;;16.91;40.36
26563;BME280;14217;50.986;5.826;2023-02-11T07:40:36;102827.97;;;16.83;40.64
26563;BME280;14217;50.986;5.826;2023-02-11T07:45:38;102831.50;;;16.84;40.73
26563;BME280;14217;50.986;5.826;2023-02-11T07:50:40;102842.94;;;16.91;40.93
26563;BME280;14217;50.986;5.826;2023-02-11T07:55:42;102823.56;;;16.87;40.85
26563;BME280;14217;50.986;5.826;2023-02-11T08:00:44;102835.88;;;16.90;40.76
26563;BME280;14217;50.986;5.826;2023-02-11T08:05:46;102835.00;;;16.89;40.97
26563;BME280;14217;50.986;5.826;2023-02-11T08:10:48;102839.44;;;16.87;40.75
26563;BME280;14217;50.986;5.826;2023-02-11T08:15:51;102842.94;;;16.91;40.52
26563;BME280;14217;50.986;5.826;2023-02-11T08:20:53;102852.69;;;16.87;40.83
26563;BME280;14217;50.986;5.826;2023-02-11T08:25:55;102850.88;;;16.91;40.60
26563;BME280;14217;50.986;5.826;2023-02-11T08:31:05;102865.00;;;16.88;40.52
26563;BME280;14217;50.986;5.826;2023-02-11T08:36:12;102867.69;;;16.86;40.79
26563;BME280;14217;50.986;5.826;2023-02-11T08:41:15;102865.88;;;16.89;40.56
26563;BME280;14217;50.986;5.826;2023-02-11T08:46:18;102880.91;;;16.91;40.95
26563;BME280;14217;50.986;5.826;2023-02-11T08:51:23;102882.72;;;16.84;41.00
26563;BME280;14217;50.986;5.826;2023-02-11T08:56:26;102884.47;;;16.87;40.90
26563;BME280;14217;50.986;5.826;2023-02-11T09:01:30;102886.22;;;16.86;40.88
26563;BME280;14217;50.986;5.826;2023-02-11T09:06:32;102893.28;;;16.89;40.80
26563;BME280;14217;50.986;5.826;2023-02-11T09:11:34;102892.38;;;16.92;41.04
26563;BME280;14217;50.986;5.826;2023-02-11T09:16:36;102896.81;;;16.85;41.08
26563;BME280;14217;50.986;5.826;2023-02-11T09:21:38;102891.50;;;16.88;40.66
26563;BME280;14217;50.986;5.826;2023-02-11T09:26:42;102901.22;;;16.88;40.93
26563;BME280;14217;50.986;5.826;2023-02-11T09:31:44;102907.34;;;16.93;40.48
26563;BME280;14217;50.986;5.826;2023-02-11T09:36:46;102914.47;;;16.84;41.25
26563;BME280;14217;50.986;5.826;2023-02-11T09:42:01;102910.94;;;16.87;41.99
26563;BME280;14217;50.986;5.826;2023-02-11T09:47:30;102906.50;;;16.80;41.92
26563;BME280;14217;50.986;5.826;2023-02-11T09:52:40;102908.31;;;16.82;41.86
26563;BME280;14217;50.986;5.826;2023-02-11T09:57:45;102912.69;;;16.91;41.45
26563;BME280;14217;50.986;5.826;2023-02-11T10:14:04;102944.47;;;16.86;41.38
26563;BME280;14217;50.986;5.826;2023-02-11T10:24:27;102945.34;;;16.87;40.94
26563;BME280;14217;50.986;5.826;2023-02-11T10:29:37;102960.38;;;16.86;40.89
26563;BME280;14217;50.986;5.826;2023-02-11T10:34:40;102955.91;;;16.98;40.91
26563;BME280;14217;50.986;5.826;2023-02-11T10:39:43;102961.28;;;16.64;43.38
26563;BME280;14217;50.986;5.826;2023-02-11T10:44:56;102960.38;;;16.83;43.57
26563;BME280;14217;50.986;5.826;2023-02-11T10:49:59;102950.59;;;16.98;45.45
26563;BME280;14217;50.986;5.826;2023-02-11T10:55:09;102955.06;;;16.91;45.75
26563;BME280;14217;50.986;5.826;2023-02-11T11:05:25;102950.59;;;17.04;45.64
26563;BME280;14217;50.986;5.826;2023-02-11T11:10:33;102952.28;;;17.10;45.57
26563;BME280;14217;50.986;5.826;2023-02-11T11:15:37;102951.44;;;17.11;46.50
26563;BME280;14217;50.986;5.826;2023-02-11T11:20:52;102950.59;;;16.99;46.59
26563;BME280;14217;50.986;5.826;2023-02-11T11:31:13;102965.63;;;16.88;45.98
26563;BME280;14217;50.986;5.826;2023-02-11T11:36:19;102965.66;;;16.82;45.45
26563;BME280;14217;50.986;5.826;2023-02-11T11:41:28;102969.19;;;16.73;45.53
26563;BME280;14217;50.986;5.826;2023-02-11T11:46:38;102954.13;;;16.97;44.75
26563;BME280;14217;50.986;5.826;2023-02-11T11:51:44;102965.72;;;16.57;45.54
26563;BME280;14217;50.986;5.826;2023-02-11T11:56:59;102963.09;;;16.40;46.37
26563;BME280;14217;50.986;5.826;2023-02-11T12:34:35;102959.56;;;16.44;46.04
26563;BME280;14217;50.986;5.826;2023-02-11T12:39:43;102947.19;;;16.56;45.40
26563;BME280;14217;50.986;5.826;2023-02-11T12:55:43;102936.56;;;16.80;45.82
26563;BME280;14217;50.986;5.826;2023-02-11T13:00:59;102947.13;;;16.71;45.71
26563;BME280;14217;50.986;5.826;2023-02-11T13:06:13;102933.00;;;16.88;44.91
26563;BME280;14217;50.986;5.826;2023-02-11T13:11:33;102940.06;;;16.84;44.68
26563;BME280;14217;50.986;5.826;2023-02-11T13:16:48;102937.34;;;16.96;44.28
26563;BME280;14217;50.986;5.826;2023-02-11T13:22:16;102918.91;;;16.70;44.85
26563;BME280;14217;50.986;5.826;2023-02-11T13:27:39;102930.28;;;17.01;43.97
26563;BME280;14217;50.986;5.826;2023-02-11T13:37:55;102920.63;;;16.90;44.47
26563;BME280;14217;50.986;5.826;2023-02-11T13:43:00;102924.19;;;16.82;46.36
26563;BME280;14217;50.986;5.826;2023-02-11T13:48:05;102924.19;;;16.72;47.13
26563;BME280;14217;50.986;5.826;2023-02-11T13:53:15;102918.00;;;16.83;46.59
26563;BME280;14217;50.986;5.826;2023-02-11T13:58:32;102907.38;;;16.90;46.84
26563;BME280;14217;50.986;5.826;2023-02-11T14:03:38;102921.50;;;16.78;46.93
26563;BME280;14217;50.986;5.826;2023-02-11T14:14:28;102911.78;;;16.94;47.10
26563;BME280;14217;50.986;5.826;2023-02-11T14:19:39;102921.53;;;16.76;47.66
26563;BME280;14217;50.986;5.826;2023-02-11T14:24:48;102923.28;;;16.77;47.06
26563;BME280;14217;50.986;5.826;2023-02-11T14:30:14;102921.53;;;16.84;46.03
26563;BME280;14217;50.986;5.826;2023-02-11T14:45:57;102925.00;;;17.00;44.85
26563;BME280;14217;50.986;5.826;2023-02-11T14:56:36;102928.56;;;16.90;44.99
26563;BME280;14217;50.986;5.826;2023-02-11T15:01:40;102932.91;;;17.06;44.35
26563;BME280;14217;50.986;5.826;2023-02-11T15:06:46;102941.75;;;17.03;44.29
26563;BME280;14217;50.986;5.826;2023-02-11T15:11:51;102939.00;;;17.22;44.14
26563;BME280;14217;50.986;5.826;2023-02-11T15:16:56;102947.88;;;17.15;44.13
26563;BME280;14217;50.986;5.826;2023-02-11T15:21:59;102951.41;;;17.18;43.83
26563;BME280;14217;50.986;5.826;2023-02-11T15:37:24;102936.47;;;16.93;45.91
26563;BME280;14217;50.986;5.826;2023-02-11T15:42:30;102941.72;;;17.05;45.67
26563;BME280;14217;50.986;5.826;2023-02-11T15:47:49;102936.59;;;16.62;47.51
26563;BME280;14217;50.986;5.826;2023-02-11T15:52:54;102939.19;;;16.73;48.07
26563;BME280;14217;50.986;5.826;2023-02-11T15:57:59;102952.44;;;16.71;48.70
26563;BME280;14217;50.986;5.826;2023-02-11T16:03:02;102940.97;;;16.69;48.26
26563;BME280;14217;50.986;5.826;2023-02-11T16:08:24;102942.69;;;16.89;47.35
26563;BME280;14217;50.986;5.826;2023-02-11T16:13:26;102946.19;;;17.01;46.89
26563;BME280;14217;50.986;5.826;2023-02-11T16:18:47;102953.25;;;16.96;46.83
26563;BME280;14217;50.986;5.826;2023-02-11T16:24:05;102955.94;;;16.73;47.30
26563;BME280;14217;50.986;5.826;2023-02-11T16:29:17;102965.66;;;16.74;47.15
26563;BME280;14217;50.986;5.826;2023-02-11T16:34:22;102955.09;;;16.74;47.04
26563;BME280;14217;50.986;5.826;2023-02-11T16:39:25;102954.22;;;16.66;46.99
26563;BME280;14217;50.986;5.826;2023-02-11T16:44:27;102961.25;;;16.76;46.65
26563;BME280;14217;50.986;5.826;2023-02-11T16:49:32;102968.34;;;16.80;46.62
26563;BME280;14217;50.986;5.826;2023-02-11T16:54:36;102969.22;;;16.81;46.90
26563;BME280;14217;50.986;5.826;2023-02-11T16:59:38;102986.84;;;16.70;45.94
26563;BME280;14217;50.986;5.826;2023-02-11T17:04:40;102986.88;;;16.68;46.06
26563;BME280;14217;50.986;5.826;2023-02-11T17:09:42;102988.63;;;16.63;46.05
26563;BME280;14217;50.986;5.826;2023-02-11T17:14:44;102977.16;;;16.70;45.60
26563;BME280;14217;50.986;5.826;2023-02-11T17:19:46;102995.69;;;16.65;45.81
26563;BME280;14217;50.986;5.826;2023-02-11T17:24:48;103000.97;;;16.70;45.40
26563;BME280;14217;50.986;5.826;2023-02-11T17:29:50;103010.69;;;16.62;45.70
26563;BME280;14217;50.986;5.826;2023-02-11T17:34:52;103005.34;;;16.77;45.38
26563;BME280;14217;50.986;5.826;2023-02-11T17:39:55;103011.53;;;16.73;45.41
26563;BME280;14217;50.986;5.826;2023-02-11T17:44:57;103015.97;;;16.86;44.88
26563;BME280;14217;50.986;5.826;2023-02-11T17:49:59;103021.28;;;16.74;45.44
26563;BME280;14217;50.986;5.826;2023-02-11T17:55:02;103023.03;;;16.81;45.20
26563;BME280;14217;50.986;5.826;2023-02-11T18:00:06;103033.63;;;16.88;45.14
26563;BME280;14217;50.986;5.826;2023-02-11T18:05:08;103040.66;;;16.90;45.22
26563;BME280;14217;50.986;5.826;2023-02-11T18:10:11;103052.16;;;16.89;45.78
26563;BME280;14217;50.986;5.826;2023-02-11T18:15:12;103053.03;;;16.83;46.50
26563;BME280;14217;50.986;5.826;2023-02-11T18:20:14;103055.66;;;16.97;46.28
26563;BME280;14217;50.986;5.826;2023-02-11T18:25:17;103068.91;;;17.02;46.07
26563;BME280;14217;50.986;5.826;2023-02-11T18:30:19;103068.91;;;16.96;46.06
26563;BME280;14217;50.986;5.826;2023-02-11T18:35:22;103066.25;;;16.97;46.01
26563;BME280;14217;50.986;5.826;2023-02-11T18:40:24;103076.84;;;16.94;46.46
26563;BME280;14217;50.986;5.826;2023-02-11T18:45:26;103070.69;;;16.88;46.61
26563;BME280;14217;50.986;5.826;2023-02-11T18:50:32;103059.19;;;16.99;45.83
26563;BME280;14217;50.986;5.826;2023-02-11T18:55:34;103061.81;;;17.02;46.05
26563;BME280;14217;50.986;5.826;2023-02-11T19:00:38;103069.78;;;16.98;46.67
26563;BME280;14217;50.986;5.826;2023-02-11T19:10:45;103064.44;;;17.09;46.61
26563;BME280;14217;50.986;5.826;2023-02-11T19:15:48;103077.72;;;16.95;47.17
26563;BME280;14217;50.986;5.826;2023-02-11T19:20:50;103079.47;;;17.05;46.55
26563;BME280;14217;50.986;5.826;2023-02-11T19:25:52;103075.88;;;17.26;45.93
26563;BME280;14217;50.986;5.826;2023-02-11T19:30:54;103073.19;;;17.35;45.62
26563;BME280;14217;50.986;5.826;2023-02-11T19:36:06;103084.72;;;17.23;45.73
26563;BME280;14217;50.986;5.826;2023-02-11T19:41:10;103090.88;;;17.28;45.28
26563;BME280;14217;50.986;5.826;2023-02-11T19:46:12;103086.44;;;17.41;45.16
26563;BME280;14217;50.986;5.826;2023-02-11T19:51:14;103089.09;;;17.34;44.90
26563;BME280;14217;50.986;5.826;2023-02-11T19:56:17;103087.28;;;17.46;44.59
26563;BME280;14217;50.986;5.826;2023-02-11T20:01:22;103089.97;;;17.42;44.49
26563;BME280;14217;50.986;5.826;2023-02-11T20:06:27;103096.09;;;17.48;44.34
26563;BME280;14217;50.986;5.826;2023-02-11T20:11:30;103095.22;;;17.46;44.36
26563;BME280;14217;50.986;5.826;2023-02-11T20:16:33;103101.41;;;17.50;44.12
26563;BME280;14217;50.986;5.826;2023-02-11T20:21:53;103099.69;;;17.40;44.30
26563;BME280;14217;50.986;5.826;2023-02-11T20:26:56;103105.84;;;17.45;43.99
26563;BME280;14217;50.986;5.826;2023-02-11T20:31:58;103107.63;;;17.37;44.24
26563;BME280;14217;50.986;5.826;2023-02-11T20:37:01;103115.59;;;17.40;44.20
26563;BME280;14217;50.986;5.826;2023-02-11T20:42:04;103114.69;;;17.44;43.83
26563;BME280;14217;50.986;5.826;2023-02-11T20:47:06;103117.31;;;17.47;43.62
26563;BME280;14217;50.986;5.826;2023-02-11T20:52:08;103130.59;;;17.38;43.85
26563;BME280;14217;50.986;5.826;2023-02-11T20:57:10;103128.81;;;17.37;43.65
26563;BME280;14217;50.986;5.826;2023-02-11T21:02:12;103132.34;;;17.45;43.75
26563;BME280;14217;50.986;5.826;2023-02-11T21:07:14;103142.97;;;17.39;43.56
26563;BME280;14217;50.986;5.826;2023-02-11T21:12:16;103151.81;;;17.39;43.56
26563;BME280;14217;50.986;5.826;2023-02-11T21:17:18;103145.59;;;17.45;43.66
26563;BME280;14217;50.986;5.826;2023-02-11T21:22:20;103151.78;;;17.41;43.37
26563;BME280;14217;50.986;5.826;2023-02-11T21:27:22;103144.69;;;17.52;43.05
26563;BME280;14217;50.986;5.826;2023-02-11T21:32:31;103157.97;;;17.43;43.23
26563;BME280;14217;50.986;5.826;2023-02-11T21:37:33;103153.53;;;17.51;43.25
26563;BME280;14217;50.986;5.826;2023-02-11T21:42:35;103157.09;;;17.42;43.29
26563;BME280;14217;50.986;5.826;2023-02-11T21:47:37;103169.44;;;17.45;43.07
26563;BME280;14217;50.986;5.826;2023-02-11T21:52:39;103168.56;;;17.49;43.12
26563;BME280;14217;50.986;5.826;2023-02-11T21:57:41;103165.91;;;17.43;43.34
26563;BME280;14217;50.986;5.826;2023-02-11T22:02:43;103157.94;;;17.51;43.11
26563;BME280;14217;50.986;5.826;2023-02-11T22:07:47;103156.22;;;17.39;43.22
26563;BME280;14217;50.986;5.826;2023-02-11T22:12:49;103154.44;;;17.48;43.09
26563;BME280;14217;50.986;5.826;2023-02-11T22:17:51;103153.53;;;17.46;43.08
26563;BME280;14217;50.986;5.826;2023-02-11T22:22:53;103160.63;;;17.46;43.20
26563;BME280;14217;50.986;5.826;2023-02-11T22:27:55;103154.44;;;17.50;42.74
26563;BME280;14217;50.986;5.826;2023-02-11T22:32:57;103163.22;;;17.57;42.51
26563;BME280;14217;50.986;5.826;2023-02-11T22:38:00;103147.34;;;17.52;42.65
26563;BME280;14217;50.986;5.826;2023-02-11T22:43:02;103153.56;;;17.48;42.86
26563;BME280;14217;50.986;5.826;2023-02-11T22:48:04;103154.44;;;17.44;43.06
26563;BME280;14217;50.986;5.826;2023-02-11T22:53:06;103149.13;;;17.50;42.76
26563;BME280;14217;50.986;5.826;2023-02-11T22:58:08;103158.81;;;17.56;42.77
26563;BME280;14217;50.986;5.826;2023-02-11T23:03:11;103167.66;;;17.53;42.63
26563;BME280;14217;50.986;5.826;2023-02-11T23:08:13;103161.50;;;17.46;42.59
26563;BME280;14217;50.986;5.826;2023-02-11T23:13:15;103167.66;;;17.45;42.79
26563;BME280;14217;50.986;5.826;2023-02-11T23:18:17;103171.22;;;17.51;42.47
26563;BME280;14217;50.986;5.826;2023-02-11T23:23:19;103181.81;;;17.49;42.84
26563;BME280;14217;50.986;5.826;2023-02-11T23:28:21;103180.06;;;17.42;42.98
26563;BME280;14217;50.986;5.826;2023-02-11T23:33:23;103179.16;;;17.43;42.68
26563;BME280;14217;50.986;5.826;2023-02-11T23:38:25;103180.03;;;17.51;42.72
26563;BME280;14217;50.986;5.826;2023-02-11T23:43:27;103179.16;;;17.49;42.55
26563;BME280;14217;50.986;5.826;2023-02-11T23:48:30;103175.59;;;17.59;42.47
26563;BME280;14217;50.986;5.826;2023-02-11T23:53:32;103171.19;;;17.54;42.26
26563;BME280;14217;50.986;5.826;2023-02-11T23:58:34;103170.31;;;17.53;42.67
